createdAt,value
2023-05-21T00:00:11.677Z,18.55
2023-05-21T00:01:11.652Z,18.55
2023-05-21T00:02:11.666Z,18.55
2023-05-21T00:03:11.757Z,18.55
2023-05-21T00:04:11.609Z,18.55
2023-05-21T00:05:14.298Z,18.55
2023-05-21T00:06:11.599Z,18.55
2023-05-21T00:07:11.572Z,18.55
2023-05-21T00:08:11.587Z,18.57
2023-05-21T00:09:11.594Z,18.55
2023-05-21T00:10:11.548Z,18.55
2023-05-21T00:11:11.557Z,18.55
2023-05-21T00:12:11.529Z,18.55
2023-05-21T00:13:11.543Z,18.55
2023-05-21T00:14:11.532Z,18.55
2023-05-21T00:15:11.505Z,18.55
2023-05-21T00:16:11.656Z,18.55
2023-05-21T00:17:11.471Z,18.55
2023-05-21T00:18:11.560Z,18.55
2023-05-21T00:19:11.508Z,18.54
2023-05-21T00:20:18.205Z,18.54
2023-05-21T00:21:11.445Z,18.57
2023-05-21T00:22:11.418Z,18.57
2023-05-21T00:23:11.408Z,18.55
2023-05-21T00:24:11.414Z,18.55
2023-05-21T00:25:11.382Z,18.55
2023-05-21T00:26:11.397Z,18.57
2023-05-21T00:27:11.360Z,18.55
2023-05-21T00:28:11.359Z,18.55
2023-05-21T00:29:11.357Z,18.54
2023-05-21T00:30:11.330Z,18.55
2023-05-21T00:31:11.366Z,18.54
2023-05-21T00:32:11.436Z,18.54
2023-05-21T00:33:11.312Z,18.55
2023-05-21T00:34:11.292Z,18.55
2023-05-21T00:35:11.279Z,18.55
2023-05-21T00:36:11.267Z,18.55
2023-05-21T00:37:11.306Z,18.55
2023-05-21T00:38:11.257Z,18.55
2023-05-21T00:39:11.231Z,18.54
2023-05-21T00:40:11.226Z,18.57
2023-05-21T00:41:11.211Z,18.55
2023-05-21T00:42:11.205Z,18.55
2023-05-21T00:43:11.205Z,18.54
2023-05-21T00:44:11.179Z,18.55
2023-05-21T00:45:11.211Z,18.54
2023-05-21T00:46:11.266Z,18.54
2023-05-21T00:47:11.143Z,18.54
2023-05-21T00:48:11.161Z,18.55
2023-05-21T00:49:11.130Z,18.55
2023-05-21T00:50:11.133Z,18.55
2023-05-21T00:51:11.106Z,18.55
2023-05-21T00:52:11.100Z,18.54
2023-05-21T00:53:11.117Z,18.55
2023-05-21T00:54:11.082Z,18.54
2023-05-21T00:55:11.143Z,18.54
2023-05-21T00:56:11.055Z,18.55
2023-05-21T00:57:11.036Z,18.54
2023-05-21T00:58:11.054Z,18.54
2023-05-21T00:59:11.015Z,18.54
2023-05-21T01:00:11.066Z,18.55
2023-05-21T01:01:11.036Z,18.55
2023-05-21T01:02:10.998Z,18.54
2023-05-21T01:03:11.339Z,18.54
2023-05-21T01:04:10.985Z,18.55
2023-05-21T01:05:10.968Z,18.54
2023-05-21T01:06:10.951Z,18.54
2023-05-21T01:07:10.957Z,18.54
2023-05-21T01:08:10.918Z,18.54
2023-05-21T01:09:10.909Z,18.55
2023-05-21T01:10:10.896Z,18.54
2023-05-21T01:11:10.884Z,18.54
2023-05-21T01:12:10.889Z,18.55
2023-05-21T01:13:10.890Z,18.55
2023-05-21T01:14:10.875Z,18.54
2023-05-21T01:15:10.850Z,18.54
2023-05-21T01:16:10.846Z,18.54
2023-05-21T01:17:10.837Z,18.54
2023-05-21T01:18:10.861Z,18.54
2023-05-21T01:19:10.890Z,18.55
2023-05-21T01:20:10.830Z,18.55
2023-05-21T01:21:10.797Z,18.54
2023-05-21T01:22:10.768Z,18.54
2023-05-21T01:23:10.761Z,18.54
2023-05-21T01:24:10.744Z,18.54
2023-05-21T01:25:10.738Z,18.54
2023-05-21T01:26:10.744Z,18.54
2023-05-21T01:27:10.750Z,18.55
2023-05-21T01:28:10.709Z,18.54
2023-05-21T01:29:10.691Z,18.54
2023-05-21T01:30:10.681Z,18.55
2023-05-21T01:31:10.692Z,18.54
2023-05-21T01:32:10.665Z,18.54
2023-05-21T01:33:10.743Z,18.54
2023-05-21T01:34:10.694Z,18.54
2023-05-21T01:35:10.625Z,18.54
2023-05-21T01:36:10.667Z,18.55
2023-05-21T01:37:10.604Z,18.54
2023-05-21T01:38:10.620Z,18.52
2023-05-21T01:39:10.583Z,18.54
2023-05-21T01:40:10.599Z,18.54
2023-05-21T01:41:10.564Z,18.54
2023-05-21T01:42:10.572Z,18.55
2023-05-21T01:43:10.543Z,18.54
2023-05-21T01:44:10.538Z,18.54
2023-05-21T01:45:10.520Z,18.54
2023-05-21T01:46:10.586Z,18.54
2023-05-21T01:47:10.520Z,18.55
2023-05-21T01:48:10.494Z,18.52
2023-05-21T01:49:10.489Z,18.54
2023-05-21T01:50:10.469Z,18.54
2023-05-21T01:51:10.457Z,18.54
2023-05-21T01:52:10.507Z,18.54
2023-05-21T01:53:10.478Z,18.52
2023-05-21T01:54:10.428Z,18.52
2023-05-21T01:55:10.418Z,18.52
2023-05-21T01:56:10.403Z,18.54
2023-05-21T01:57:10.414Z,18.54
2023-05-21T01:58:10.399Z,18.55
2023-05-21T01:59:10.381Z,18.55
2023-05-21T02:00:10.388Z,18.55
2023-05-21T02:01:10.361Z,18.54
2023-05-21T02:02:10.404Z,18.54
2023-05-21T02:03:10.401Z,18.54
2023-05-21T02:04:10.387Z,18.54
2023-05-21T02:05:10.310Z,18.54
2023-05-21T02:06:10.298Z,18.52
2023-05-21T02:07:10.326Z,18.54
2023-05-21T02:08:10.306Z,18.54
2023-05-21T02:09:10.291Z,18.52
2023-05-21T02:10:10.258Z,18.54
2023-05-21T02:11:10.251Z,18.52
2023-05-21T02:12:10.255Z,18.54
2023-05-21T02:13:10.225Z,18.52
2023-05-21T02:14:10.238Z,18.54
2023-05-21T02:15:10.208Z,18.52
2023-05-21T02:16:10.295Z,18.54
2023-05-21T02:17:10.190Z,18.54
2023-05-21T02:18:10.255Z,18.54
2023-05-21T02:19:10.255Z,18.54
2023-05-21T02:20:10.152Z,18.54
2023-05-21T02:21:10.172Z,18.52
2023-05-21T02:22:10.144Z,18.52
2023-05-21T02:23:10.121Z,18.54
2023-05-21T02:24:10.138Z,18.52
2023-05-21T02:25:10.142Z,18.52
2023-05-21T02:26:10.114Z,18.54
2023-05-21T02:27:10.084Z,18.54
2023-05-21T02:28:10.072Z,18.52
2023-05-21T02:29:10.075Z,18.52
2023-05-21T02:30:10.056Z,18.52
2023-05-21T02:31:10.125Z,18.55
2023-05-21T02:32:10.034Z,18.54
2023-05-21T02:33:10.073Z,18.54
2023-05-21T02:34:10.071Z,18.54
2023-05-21T02:35:09.992Z,18.54
2023-05-21T02:36:09.982Z,18.52
2023-05-21T02:37:09.992Z,18.54
2023-05-21T02:38:09.960Z,18.52
2023-05-21T02:39:09.968Z,18.54
2023-05-21T02:40:10.059Z,18.54
2023-05-21T02:41:09.930Z,18.51
2023-05-21T02:42:09.918Z,18.52
2023-05-21T02:43:09.906Z,18.52
2023-05-21T02:44:09.922Z,18.52
2023-05-21T02:45:09.894Z,18.52
2023-05-21T02:46:10.028Z,18.52
2023-05-21T02:47:09.862Z,18.52
2023-05-21T02:48:09.887Z,18.52
2023-05-21T02:49:09.839Z,18.52
2023-05-21T02:50:09.873Z,18.54
2023-05-21T02:51:09.827Z,18.54
2023-05-21T02:52:09.819Z,18.52
2023-05-21T02:53:09.831Z,18.54
2023-05-21T02:54:09.791Z,18.54
2023-05-21T02:55:09.794Z,18.52
2023-05-21T02:56:09.805Z,18.52
2023-05-21T02:57:09.762Z,18.52
2023-05-21T02:58:09.744Z,18.52
2023-05-21T02:59:09.731Z,18.52
2023-05-21T03:00:09.777Z,18.52
2023-05-21T03:01:09.812Z,18.52
2023-05-21T03:02:09.722Z,18.52
2023-05-21T03:03:09.832Z,18.52
2023-05-21T03:04:09.680Z,18.54
2023-05-21T03:05:09.667Z,18.52
2023-05-21T03:06:09.678Z,18.52
2023-05-21T03:07:09.646Z,18.52
2023-05-21T03:08:09.647Z,18.52
2023-05-21T03:09:09.632Z,18.52
2023-05-21T03:10:09.613Z,18.54
2023-05-21T03:11:09.601Z,18.52
2023-05-21T03:12:09.634Z,18.52
2023-05-21T03:13:09.964Z,18.52
2023-05-21T03:14:09.569Z,18.52
2023-05-21T03:15:09.557Z,18.51
2023-05-21T03:16:09.547Z,18.52
2023-05-21T03:17:09.574Z,18.54
2023-05-21T03:18:09.622Z,18.52
2023-05-21T03:19:09.576Z,18.54
2023-05-21T03:20:09.508Z,18.52
2023-05-21T03:21:09.495Z,18.54
2023-05-21T03:22:09.506Z,18.52
2023-05-21T03:23:09.473Z,18.52
2023-05-21T03:24:09.461Z,18.51
2023-05-21T03:25:09.485Z,18.52
2023-05-21T03:26:09.461Z,18.52
2023-05-21T03:27:09.440Z,18.52
2023-05-21T03:28:09.455Z,18.51
2023-05-21T03:29:09.416Z,18.52
2023-05-21T03:30:09.423Z,18.51
2023-05-21T03:31:09.405Z,18.51
2023-05-21T03:32:09.439Z,18.52
2023-05-21T03:33:09.394Z,18.52
2023-05-21T03:34:09.381Z,18.52
2023-05-21T03:35:09.352Z,18.51
2023-05-21T03:36:09.334Z,18.52
2023-05-21T03:37:09.334Z,18.51
2023-05-21T03:38:09.314Z,18.52
2023-05-21T03:39:09.308Z,18.54
2023-05-21T03:40:09.308Z,18.52
2023-05-21T03:41:09.299Z,18.52
2023-05-21T03:42:09.270Z,18.52
2023-05-21T03:43:09.259Z,18.52
2023-05-21T03:44:09.285Z,18.52
2023-05-21T03:45:09.236Z,18.52
2023-05-21T03:46:09.280Z,18.52
2023-05-21T03:47:09.216Z,18.52
2023-05-21T03:48:09.205Z,18.52
2023-05-21T03:49:09.219Z,18.52
2023-05-21T03:50:09.196Z,18.54
2023-05-21T03:51:09.173Z,18.51
2023-05-21T03:52:09.194Z,18.52
2023-05-21T03:53:09.154Z,18.52
2023-05-21T03:54:09.150Z,18.52
2023-05-21T03:55:09.135Z,18.51
2023-05-21T03:56:09.123Z,18.52
2023-05-21T03:57:09.118Z,18.52
2023-05-21T03:58:09.117Z,18.51
2023-05-21T03:59:09.087Z,18.51
2023-05-21T04:00:09.131Z,18.52
2023-05-21T04:01:09.081Z,18.52
2023-05-21T04:02:09.095Z,18.52
2023-05-21T04:03:09.206Z,18.51
2023-05-21T04:04:09.135Z,18.52
2023-05-21T04:05:09.032Z,18.52
2023-05-21T04:06:09.017Z,18.52
2023-05-21T04:07:09.002Z,18.52
2023-05-21T04:08:09.005Z,18.52
2023-05-21T04:09:08.996Z,18.52
2023-05-21T04:10:08.996Z,18.52
2023-05-21T04:11:08.963Z,18.52
2023-05-21T04:12:08.958Z,18.54
2023-05-21T04:13:08.940Z,18.52
2023-05-21T04:14:08.934Z,18.54
2023-05-21T04:15:08.935Z,18.52
2023-05-21T04:16:09.231Z,18.51
2023-05-21T04:17:08.912Z,18.51
2023-05-21T04:18:08.899Z,18.51
2023-05-21T04:19:08.923Z,18.51
2023-05-21T04:20:08.862Z,18.51
2023-05-21T04:21:08.852Z,18.51
2023-05-21T04:22:08.862Z,18.51
2023-05-21T04:23:08.830Z,18.52
2023-05-21T04:24:08.841Z,18.52
2023-05-21T04:25:08.811Z,18.51
2023-05-21T04:26:08.809Z,18.51
2023-05-21T04:27:08.810Z,18.52
2023-05-21T04:28:08.788Z,18.52
2023-05-21T04:29:08.768Z,18.52
2023-05-21T04:30:08.775Z,18.52
2023-05-21T04:31:08.842Z,18.51
2023-05-21T04:32:08.757Z,18.51
2023-05-21T04:33:08.743Z,18.51
2023-05-21T04:34:08.721Z,18.54
2023-05-21T04:35:08.701Z,18.51
2023-05-21T04:36:08.689Z,18.51
2023-05-21T04:37:08.710Z,18.51
2023-05-21T04:38:08.670Z,18.52
2023-05-21T04:39:08.661Z,18.51
2023-05-21T04:40:08.647Z,18.51
2023-05-21T04:41:08.639Z,18.52
2023-05-21T04:42:08.626Z,18.52
2023-05-21T04:43:08.638Z,18.51
2023-05-21T04:44:08.604Z,18.52
2023-05-21T04:45:08.597Z,18.52
2023-05-21T04:46:08.618Z,18.51
2023-05-21T04:47:08.641Z,18.51
2023-05-21T04:48:08.690Z,18.51
2023-05-21T04:49:08.569Z,18.52
2023-05-21T04:50:08.542Z,18.52
2023-05-21T04:51:08.539Z,18.51
2023-05-21T04:52:08.529Z,18.52
2023-05-21T04:53:08.519Z,18.51
2023-05-21T04:54:08.528Z,18.51
2023-05-21T04:55:08.487Z,18.51
2023-05-21T04:56:08.484Z,18.51
2023-05-21T04:57:08.463Z,18.51
2023-05-21T04:58:08.458Z,18.51
2023-05-21T04:59:08.478Z,18.52
2023-05-21T05:00:08.432Z,18.51
2023-05-21T05:01:08.441Z,18.51
2023-05-21T05:02:08.410Z,18.52
2023-05-21T05:03:08.526Z,18.51
2023-05-21T05:04:08.462Z,18.51
2023-05-21T05:05:08.378Z,18.52
2023-05-21T05:06:08.369Z,18.52
2023-05-21T05:07:08.385Z,18.51
2023-05-21T05:08:08.347Z,18.51
2023-05-21T05:09:08.336Z,18.51
2023-05-21T05:10:08.326Z,18.52
2023-05-21T05:11:08.319Z,18.51
2023-05-21T05:12:08.306Z,18.50
2023-05-21T05:13:08.313Z,18.52
2023-05-21T05:14:08.317Z,18.54
2023-05-21T05:15:08.272Z,18.51
2023-05-21T05:16:08.322Z,18.51
2023-05-21T05:17:08.255Z,18.51
2023-05-21T05:18:08.311Z,18.51
2023-05-21T05:19:08.248Z,18.52
2023-05-21T05:20:08.324Z,18.51
2023-05-21T05:21:08.223Z,18.51
2023-05-21T05:22:08.198Z,18.51
2023-05-21T05:23:08.187Z,18.51
2023-05-21T05:24:08.175Z,18.51
2023-05-21T05:25:08.168Z,18.51
2023-05-21T05:26:08.184Z,18.50
2023-05-21T05:27:08.143Z,18.52
2023-05-21T05:28:08.130Z,18.51
2023-05-21T05:29:08.139Z,18.51
2023-05-21T05:30:08.114Z,18.52
2023-05-21T05:31:08.161Z,18.51
2023-05-21T05:32:08.100Z,18.51
2023-05-21T05:33:08.147Z,18.51
2023-05-21T05:34:08.069Z,18.51
2023-05-21T05:35:08.086Z,18.52
2023-05-21T05:36:08.153Z,18.52
2023-05-21T05:37:08.044Z,18.51
2023-05-21T05:38:08.027Z,18.52
2023-05-21T05:39:08.013Z,18.51
2023-05-21T05:40:08.002Z,18.52
2023-05-21T05:41:08.034Z,18.51
2023-05-21T05:42:07.980Z,18.51
2023-05-21T05:43:07.972Z,18.51
2023-05-21T05:44:10.260Z,18.51
2023-05-21T05:45:07.949Z,18.54
2023-05-21T05:46:08.004Z,18.52
2023-05-21T05:47:07.929Z,18.51
2023-05-21T05:48:08.005Z,18.51
2023-05-21T05:49:07.906Z,18.51
2023-05-21T05:50:07.892Z,18.51
2023-05-21T05:51:07.907Z,18.52
2023-05-21T05:52:07.899Z,18.51
2023-05-21T05:53:07.860Z,18.51
2023-05-21T05:54:07.868Z,18.51
2023-05-21T05:55:07.838Z,18.52
2023-05-21T05:56:07.852Z,18.51
2023-05-21T05:57:07.817Z,18.52
2023-05-21T05:58:07.809Z,18.54
2023-05-21T05:59:07.793Z,18.51
2023-05-21T06:00:07.784Z,18.52
2023-05-21T06:01:07.797Z,18.52
2023-05-21T06:02:07.853Z,18.51
2023-05-21T06:03:07.875Z,18.51
2023-05-21T06:04:07.745Z,18.51
2023-05-21T06:05:07.744Z,18.51
2023-05-21T06:06:07.761Z,18.52
2023-05-21T06:07:07.746Z,18.52
2023-05-21T06:08:07.793Z,18.52
2023-05-21T06:09:07.710Z,18.51
2023-05-21T06:10:07.692Z,18.52
2023-05-21T06:11:07.674Z,18.51
2023-05-21T06:12:07.656Z,18.51
2023-05-21T06:13:07.645Z,18.51
2023-05-21T06:14:07.657Z,18.52
2023-05-21T06:15:07.631Z,18.52
2023-05-21T06:16:07.777Z,18.51
2023-05-21T06:17:07.601Z,18.54
2023-05-21T06:18:07.622Z,18.52
2023-05-21T06:19:07.661Z,18.51
2023-05-21T06:20:07.573Z,18.52
2023-05-21T06:21:07.571Z,18.52
2023-05-21T06:22:07.567Z,18.52
2023-05-21T06:23:07.539Z,18.52
2023-05-21T06:24:07.555Z,18.51
2023-05-21T06:25:07.549Z,18.52
2023-05-21T06:26:07.506Z,18.52
2023-05-21T06:27:07.498Z,18.54
2023-05-21T06:28:07.511Z,18.51
2023-05-21T06:29:07.485Z,18.52
2023-05-21T06:30:07.491Z,18.52
2023-05-21T06:31:07.453Z,18.52
2023-05-21T06:32:07.442Z,18.54
2023-05-21T06:33:07.625Z,18.51
2023-05-21T06:34:07.511Z,18.52
2023-05-21T06:35:07.408Z,18.52
2023-05-21T06:36:07.398Z,18.52
2023-05-21T06:37:07.384Z,18.54
2023-05-21T06:38:07.410Z,18.52
2023-05-21T06:39:07.371Z,18.52
2023-05-21T06:40:07.379Z,18.52
2023-05-21T06:41:07.344Z,18.52
2023-05-21T06:42:07.334Z,18.51
2023-05-21T06:43:07.331Z,18.54
2023-05-21T06:44:07.328Z,18.52
2023-05-21T06:45:07.320Z,18.52
2023-05-21T06:46:07.349Z,18.54
2023-05-21T06:47:07.289Z,18.52
2023-05-21T06:48:07.329Z,18.52
2023-05-21T06:49:07.290Z,18.52
2023-05-21T06:50:07.245Z,18.52
2023-05-21T06:51:07.260Z,18.52
2023-05-21T06:52:07.247Z,18.52
2023-05-21T06:53:07.217Z,18.52
2023-05-21T06:54:07.209Z,18.52
2023-05-21T06:55:07.227Z,18.52
2023-05-21T06:56:07.208Z,18.52
2023-05-21T06:57:07.177Z,18.52
2023-05-21T06:58:07.180Z,18.54
2023-05-21T06:59:07.157Z,18.52
2023-05-21T07:00:07.142Z,18.52
2023-05-21T07:01:07.150Z,18.52
2023-05-21T07:02:07.189Z,18.54
2023-05-21T07:03:07.284Z,18.54
2023-05-21T07:04:07.100Z,18.54
2023-05-21T07:05:07.121Z,18.52
2023-05-21T07:06:07.083Z,18.52
2023-05-21T07:07:07.087Z,18.52
2023-05-21T07:08:07.056Z,18.52
2023-05-21T07:09:07.039Z,18.54
2023-05-21T07:10:07.052Z,18.52
2023-05-21T07:11:07.023Z,18.54
2023-05-21T07:12:07.036Z,18.52
2023-05-21T07:13:07.016Z,18.52
2023-05-21T07:14:06.986Z,18.54
2023-05-21T07:15:06.974Z,18.54
2023-05-21T07:16:06.972Z,18.54
2023-05-21T07:17:07.045Z,18.54
2023-05-21T07:18:07.005Z,18.52
2023-05-21T07:19:06.961Z,18.54
2023-05-21T07:20:06.922Z,18.54
2023-05-21T07:21:06.926Z,18.52
2023-05-21T07:22:06.923Z,18.52
2023-05-21T07:23:06.907Z,18.54
2023-05-21T07:24:06.878Z,18.54
2023-05-21T07:25:06.888Z,18.54
2023-05-21T07:26:06.878Z,18.52
2023-05-21T07:27:17.665Z,18.54
2023-05-21T07:28:07.860Z,18.54
2023-05-21T07:29:06.828Z,18.54
2023-05-21T07:30:06.814Z,18.54
2023-05-21T07:31:06.872Z,18.54
2023-05-21T07:32:06.812Z,18.54
2023-05-21T07:33:06.815Z,18.54
2023-05-21T07:34:06.770Z,18.55
2023-05-21T07:35:06.797Z,18.55
2023-05-21T07:36:06.752Z,18.54
2023-05-21T07:37:06.756Z,18.54
2023-05-21T07:38:06.785Z,18.55
2023-05-21T07:39:06.718Z,18.54
2023-05-21T07:40:06.708Z,18.55
2023-05-21T07:41:06.717Z,18.54
2023-05-21T07:42:06.689Z,18.54
2023-05-21T07:43:06.683Z,18.54
2023-05-21T07:44:06.697Z,18.55
2023-05-21T07:45:06.689Z,18.54
2023-05-21T07:46:06.695Z,18.55
2023-05-21T07:47:06.635Z,18.54
2023-05-21T07:48:06.671Z,18.55
2023-05-21T07:49:06.609Z,18.55
2023-05-21T07:50:06.628Z,18.54
2023-05-21T07:51:06.608Z,18.55
2023-05-21T07:52:06.591Z,18.54
2023-05-21T07:53:06.623Z,18.54
2023-05-21T07:54:06.558Z,18.54
2023-05-21T07:55:06.553Z,18.54
2023-05-21T07:56:06.575Z,18.54
2023-05-21T07:57:06.544Z,18.55
2023-05-21T07:58:06.522Z,18.54
2023-05-21T07:59:06.519Z,18.54
2023-05-21T08:00:06.540Z,18.55
2023-05-21T08:01:06.501Z,18.57
2023-05-21T08:02:06.470Z,18.54
2023-05-21T08:03:06.533Z,18.55
2023-05-21T08:04:06.683Z,18.52
2023-05-21T08:05:06.558Z,18.54
2023-05-21T08:06:06.432Z,18.55
2023-05-21T08:07:06.420Z,18.54
2023-05-21T08:08:06.410Z,18.55
2023-05-21T08:09:06.428Z,18.54
2023-05-21T08:10:06.437Z,18.55
2023-05-21T08:11:06.386Z,18.55
2023-05-21T08:12:06.390Z,18.55
2023-05-21T08:13:06.372Z,18.57
2023-05-21T08:14:06.373Z,18.55
2023-05-21T08:15:06.337Z,18.55
2023-05-21T08:16:06.386Z,18.55
2023-05-21T08:17:06.315Z,18.55
2023-05-21T08:18:06.382Z,18.57
2023-05-21T08:19:06.394Z,18.57
2023-05-21T08:20:06.301Z,18.55
2023-05-21T08:21:06.269Z,18.57
2023-05-21T08:22:06.262Z,18.57
2023-05-21T08:23:06.254Z,18.54
2023-05-21T08:24:06.270Z,18.57
2023-05-21T08:25:06.230Z,18.55
2023-05-21T08:26:06.217Z,18.55
2023-05-21T08:27:06.229Z,18.57
2023-05-21T08:28:06.194Z,18.55
2023-05-21T08:29:06.182Z,18.57
2023-05-21T08:30:06.203Z,18.57
2023-05-21T08:31:06.164Z,18.57
2023-05-21T08:32:06.309Z,18.57
2023-05-21T08:33:06.204Z,18.57
2023-05-21T08:34:06.132Z,18.57
2023-05-21T08:35:06.122Z,18.57
2023-05-21T08:36:06.112Z,18.57
2023-05-21T08:37:06.100Z,18.57
2023-05-21T08:38:06.111Z,18.57
2023-05-21T08:39:06.077Z,18.57
2023-05-21T08:40:06.066Z,18.57
2023-05-21T08:41:06.053Z,18.55
2023-05-21T08:42:06.044Z,18.57
2023-05-21T08:43:06.052Z,18.57
2023-05-21T08:44:06.052Z,18.58
2023-05-21T08:45:06.015Z,18.58
2023-05-21T08:46:06.059Z,18.57
2023-05-21T08:47:06.026Z,18.58
2023-05-21T08:48:06.222Z,18.58
2023-05-21T08:49:05.967Z,18.57
2023-05-21T08:50:05.958Z,18.57
2023-05-21T08:51:05.944Z,18.58
2023-05-21T08:52:05.956Z,18.57
2023-05-21T08:53:15.992Z,18.57
2023-05-21T08:54:06.943Z,18.57
2023-05-21T08:55:05.916Z,18.60
2023-05-21T08:56:05.892Z,18.58
2023-05-21T08:57:05.889Z,18.57
2023-05-21T08:58:05.876Z,18.57
2023-05-21T08:59:05.878Z,18.57
2023-05-21T09:00:05.859Z,18.58
2023-05-21T09:01:05.874Z,18.58
2023-05-21T09:02:05.824Z,18.58
2023-05-21T09:03:05.879Z,18.58
2023-05-21T09:04:19.649Z,18.58
2023-05-21T09:05:06.795Z,18.57
2023-05-21T09:06:05.792Z,18.57
2023-05-21T09:07:05.779Z,18.58
2023-05-21T09:08:05.762Z,18.58
2023-05-21T09:09:05.772Z,18.57
2023-05-21T09:10:05.744Z,18.57
2023-05-21T09:11:05.747Z,18.58
2023-05-21T09:12:05.715Z,18.60
2023-05-21T09:13:05.726Z,18.58
2023-05-21T09:14:05.696Z,18.60
2023-05-21T09:15:05.690Z,18.58
2023-05-21T09:16:05.686Z,18.58
2023-05-21T09:17:05.723Z,18.58
2023-05-21T09:18:05.709Z,18.58
2023-05-21T09:19:05.690Z,18.58
2023-05-21T09:20:05.661Z,18.58
2023-05-21T09:21:05.621Z,18.60
2023-05-21T09:22:05.621Z,18.58
2023-05-21T09:23:05.607Z,18.60
2023-05-21T09:24:05.612Z,18.58
2023-05-21T09:25:05.576Z,18.60
2023-05-21T09:26:05.571Z,18.58
2023-05-21T09:27:05.561Z,18.60
2023-05-21T09:28:05.548Z,18.62
2023-05-21T09:29:05.557Z,18.60
2023-05-21T09:30:05.552Z,18.60
2023-05-21T09:31:05.560Z,18.60
2023-05-21T09:32:05.503Z,18.60
2023-05-21T09:33:05.510Z,18.60
2023-05-21T09:34:05.496Z,18.60
2023-05-21T09:35:05.510Z,18.60
2023-05-21T09:36:05.489Z,18.62
2023-05-21T09:37:08.443Z,18.60
2023-05-21T09:38:06.441Z,18.60
2023-05-21T09:39:05.452Z,18.60
2023-05-21T09:40:05.425Z,18.62
2023-05-21T09:41:05.407Z,18.62
2023-05-21T09:42:05.407Z,18.60
2023-05-21T09:43:05.390Z,18.60
2023-05-21T09:44:05.414Z,18.60
2023-05-21T09:45:05.397Z,18.60
2023-05-21T09:46:05.406Z,18.60
2023-05-21T09:47:05.362Z,18.60
2023-05-21T09:48:05.343Z,18.60
2023-05-21T09:49:05.345Z,18.60
2023-05-21T09:50:05.309Z,18.60
2023-05-21T09:51:05.295Z,18.62
2023-05-21T09:52:05.310Z,18.60
2023-05-21T09:53:05.295Z,18.60
2023-05-21T09:54:05.272Z,18.62
2023-05-21T09:55:05.259Z,18.62
2023-05-21T09:56:05.242Z,18.62
2023-05-21T09:57:05.254Z,18.60
2023-05-21T09:58:05.232Z,18.60
2023-05-21T09:59:05.229Z,18.62
2023-05-21T10:00:05.201Z,18.60
2023-05-21T10:01:05.195Z,18.60
2023-05-21T10:02:05.237Z,18.62
2023-05-21T10:03:05.228Z,18.62
2023-05-21T10:04:05.183Z,18.60
2023-05-21T10:05:05.151Z,18.62
2023-05-21T10:06:05.141Z,18.62
2023-05-21T10:07:05.145Z,18.60
2023-05-21T10:08:05.142Z,18.60
2023-05-21T10:09:06.000Z,18.60
2023-05-21T10:10:05.106Z,18.60
2023-05-21T10:11:05.114Z,18.62
2023-05-21T10:12:05.088Z,18.62
2023-05-21T10:13:05.070Z,18.62
2023-05-21T10:14:05.068Z,18.62
2023-05-21T10:15:05.041Z,18.62
2023-05-21T10:16:05.048Z,18.62
2023-05-21T10:17:05.015Z,18.60
2023-05-21T10:18:05.086Z,18.60
2023-05-21T10:19:05.070Z,18.60
2023-05-21T10:20:05.007Z,18.63
2023-05-21T10:21:04.978Z,18.62
2023-05-21T10:22:04.968Z,18.62
2023-05-21T10:23:04.954Z,18.62
2023-05-21T10:24:04.988Z,18.62
2023-05-21T10:25:04.935Z,18.62
2023-05-21T10:26:04.923Z,18.62
2023-05-21T10:27:04.936Z,18.62
2023-05-21T10:28:04.902Z,18.63
2023-05-21T10:29:04.886Z,18.62
2023-05-21T10:30:04.879Z,18.63
2023-05-21T10:31:04.884Z,18.63
2023-05-21T10:32:04.892Z,18.62
2023-05-21T10:33:05.001Z,18.62
2023-05-21T10:34:04.841Z,18.63
2023-05-21T10:35:04.827Z,18.63
2023-05-21T10:36:04.848Z,18.62
2023-05-21T10:37:04.829Z,18.63
2023-05-21T10:38:04.798Z,18.62
2023-05-21T10:39:04.790Z,18.62
2023-05-21T10:40:04.898Z,18.62
2023-05-21T10:41:04.764Z,18.63
2023-05-21T10:42:04.781Z,18.63
2023-05-21T10:43:04.759Z,18.63
2023-05-21T10:44:04.734Z,18.63
2023-05-21T10:45:04.730Z,18.63
2023-05-21T10:46:04.757Z,18.63
2023-05-21T10:47:04.701Z,18.62
2023-05-21T10:48:04.831Z,18.63
2023-05-21T10:49:04.676Z,18.63
2023-05-21T10:50:04.683Z,18.63
2023-05-21T10:51:04.651Z,18.63
2023-05-21T10:52:04.653Z,18.65
2023-05-21T10:53:04.633Z,18.63
2023-05-21T10:54:04.648Z,18.62
2023-05-21T10:55:04.610Z,18.63
2023-05-21T10:56:04.646Z,18.63
2023-05-21T10:57:04.614Z,18.65
2023-05-21T10:58:04.576Z,18.63
2023-05-21T10:59:04.590Z,18.63
2023-05-21T11:00:04.553Z,18.63
2023-05-21T11:01:04.601Z,18.63
2023-05-21T11:02:04.569Z,18.63
2023-05-21T11:03:04.781Z,18.65
2023-05-21T11:04:04.515Z,18.63
2023-05-21T11:05:04.504Z,18.63
2023-05-21T11:06:04.500Z,18.65
2023-05-21T11:07:04.486Z,18.63
2023-05-21T11:08:04.495Z,18.65
2023-05-21T11:09:04.481Z,18.63
2023-05-21T11:10:04.450Z,18.63
2023-05-21T11:11:04.454Z,18.65
2023-05-21T11:12:04.456Z,18.65
2023-05-21T11:13:04.424Z,18.63
2023-05-21T11:14:04.423Z,18.65
2023-05-21T11:15:04.400Z,18.65
2023-05-21T11:16:04.387Z,18.65
2023-05-21T11:17:04.399Z,18.65
2023-05-21T11:18:04.427Z,18.66
2023-05-21T11:19:04.460Z,18.63
2023-05-21T11:20:04.343Z,18.65
2023-05-21T11:21:04.343Z,18.65
2023-05-21T11:22:04.321Z,18.65
2023-05-21T11:23:04.310Z,18.66
2023-05-21T11:24:04.319Z,18.65
2023-05-21T11:25:04.286Z,18.65
2023-05-21T11:26:04.277Z,18.65
2023-05-21T11:27:04.271Z,18.65
2023-05-21T11:28:04.284Z,18.66
2023-05-21T11:29:04.306Z,18.66
2023-05-21T11:30:04.309Z,18.66
2023-05-21T11:31:04.260Z,18.66
2023-05-21T11:32:04.213Z,18.65
2023-05-21T11:33:04.280Z,18.66
2023-05-21T11:34:04.191Z,18.65
2023-05-21T11:35:04.208Z,18.66
2023-05-21T11:36:04.171Z,18.67
2023-05-21T11:37:04.166Z,18.65
2023-05-21T11:38:04.151Z,18.66
2023-05-21T11:39:04.145Z,18.65
2023-05-21T11:40:04.144Z,18.65
2023-05-21T11:41:04.129Z,18.66
2023-05-21T11:42:04.783Z,18.67
2023-05-21T11:43:04.098Z,18.66
2023-05-21T11:44:04.196Z,18.66
2023-05-21T11:45:04.175Z,18.66
2023-05-21T11:46:04.093Z,18.66
2023-05-21T11:47:04.061Z,18.66
2023-05-21T11:48:04.076Z,18.66
2023-05-21T11:49:04.033Z,18.67
2023-05-21T11:50:04.051Z,18.67
2023-05-21T11:51:04.036Z,18.66
2023-05-21T11:52:03.997Z,18.69
2023-05-21T11:53:04.004Z,18.69
2023-05-21T11:54:04.013Z,18.69
2023-05-21T11:55:03.965Z,18.67
2023-05-21T11:56:03.976Z,18.67
2023-05-21T11:57:03.944Z,18.67
2023-05-21T11:58:03.935Z,18.67
2023-05-21T11:59:03.921Z,18.67
2023-05-21T12:00:03.962Z,18.67
2023-05-21T12:01:03.923Z,18.69
2023-05-21T12:02:03.891Z,18.66
2023-05-21T12:03:03.979Z,18.67
2023-05-21T12:04:04.007Z,18.67
2023-05-21T12:05:03.911Z,18.67
2023-05-21T12:06:03.925Z,18.67
2023-05-21T12:07:03.839Z,18.69
2023-05-21T12:08:03.829Z,18.67
2023-05-21T12:09:03.817Z,18.69
2023-05-21T12:10:03.803Z,18.69
2023-05-21T12:11:03.815Z,18.69
2023-05-21T12:12:03.783Z,18.70
2023-05-21T12:13:03.791Z,18.67
2023-05-21T12:14:03.787Z,18.69
2023-05-21T12:15:03.753Z,18.69
2023-05-21T12:16:06.452Z,18.70
2023-05-21T12:17:03.725Z,18.70
2023-05-21T12:18:03.762Z,18.69
2023-05-21T12:19:03.754Z,18.69
2023-05-21T12:20:03.700Z,18.69
2023-05-21T12:21:03.715Z,18.69
2023-05-21T12:22:03.675Z,18.70
2023-05-21T12:23:03.674Z,18.70
2023-05-21T12:24:03.655Z,18.70
2023-05-21T12:25:03.658Z,18.70
2023-05-21T12:26:03.647Z,18.70
2023-05-21T12:27:03.647Z,18.72
2023-05-21T12:28:03.656Z,18.72
2023-05-21T12:29:03.617Z,18.72
2023-05-21T12:30:03.587Z,18.72
2023-05-21T12:31:03.578Z,18.70
2023-05-21T12:32:03.782Z,18.72
2023-05-21T12:33:03.588Z,18.70
2023-05-21T12:34:03.564Z,18.72
2023-05-21T12:35:03.558Z,18.72
2023-05-21T12:36:03.544Z,18.70
2023-05-21T12:37:03.525Z,18.72
2023-05-21T12:38:03.502Z,18.72
2023-05-21T12:39:03.497Z,18.72
2023-05-21T12:40:03.483Z,18.72
2023-05-21T12:41:03.493Z,18.72
2023-05-21T12:42:03.462Z,18.72
2023-05-21T12:43:03.453Z,18.72
2023-05-21T12:44:03.439Z,18.73
2023-05-21T12:45:03.433Z,18.72
2023-05-21T12:46:03.527Z,18.72
2023-05-21T12:47:03.432Z,18.72
2023-05-21T12:48:03.510Z,18.73
2023-05-21T12:49:03.389Z,18.72
2023-05-21T12:50:03.375Z,18.73
2023-05-21T12:51:03.386Z,18.73
2023-05-21T12:52:03.362Z,18.73